Terminal Aerodrome Forecast
Issued by NWS

Home | Current Version | Previous Version | Text Only | Print | Product List | Glossary Off
Versions: 1 2 3 4 5 6 7 8 9 10 11 12 13 14 15 16 17 18 19 20 21 22 23 24 25 26 27 28 29 30 31 32 33

000
FTUS43 KLOT 012339
TAFDPA
TAF
KDPA 012339Z 0200/0224 26010G15KT P6SM SCT080 BKN250
     FM020130 25007KT P6SM SCT200
     FM021200 23012KT P6SM SCT040 BKN150
     FM021400 22013G21KT P6SM VCSH SCT060 BKN100 PROB30 0214/0216
      4SM TSRA BKN040CB
     FM021700 21019G31KT P6SM SCT050 SCT100=

USA.gov is the U.S. government's official web portal to all federal, state and local government web resources and services.